createdAt,value
2023-05-10T00:00:29.763Z,17.66
2023-05-10T00:02:48.212Z,17.64
2023-05-10T00:04:52.095Z,17.63
2023-05-10T00:07:04.405Z,17.62
2023-05-10T00:09:12.314Z,17.61
2023-05-10T00:11:15.686Z,17.59
2023-05-10T00:13:22.663Z,17.59
2023-05-10T00:15:42.452Z,17.58
2023-05-10T00:17:49.422Z,17.57
2023-05-10T00:19:52.736Z,17.56
2023-05-10T00:22:02.845Z,17.56
2023-05-10T00:24:08.791Z,17.54
2023-05-10T00:26:11.386Z,17.53
2023-05-10T00:28:16.525Z,17.52
2023-05-10T00:30:32.202Z,17.50
2023-05-10T00:32:49.490Z,17.49
2023-05-10T00:34:52.505Z,17.48
2023-05-10T00:36:55.944Z,17.47
2023-05-10T00:39:01.452Z,17.48
2023-05-10T00:41:07.625Z,17.47
2023-05-10T00:43:14.787Z,17.47
2023-05-10T00:45:27.566Z,17.47
2023-05-10T00:47:51.637Z,17.45
2023-05-10T00:50:00.895Z,17.45
2023-05-10T00:52:06.141Z,17.44
2023-05-10T00:54:20.392Z,17.43
2023-05-10T00:56:26.404Z,17.42
2023-05-10T00:58:29.802Z,17.39
2023-05-10T01:00:35.606Z,17.36
2023-05-10T01:02:39.669Z,17.34
2023-05-10T01:04:51.861Z,17.31
2023-05-10T01:06:55.125Z,17.28
2023-05-10T01:08:59.796Z,17.24
2023-05-10T01:11:04.489Z,17.24
2023-05-10T01:13:10.362Z,17.23
2023-05-10T01:15:25.549Z,17.21
2023-05-10T01:17:41.436Z,17.18
2023-05-10T01:19:46.509Z,17.15
2023-05-10T01:21:59.856Z,17.11
2023-05-10T01:24:34.073Z,17.07
2023-05-10T01:27:13.479Z,17.03
2023-05-10T01:29:22.574Z,17.01
2023-05-10T01:32:08.451Z,17.02
2023-05-10T01:34:26.177Z,17.02
2023-05-10T01:36:37.479Z,17.01
2023-05-10T01:39:03.272Z,17.01
2023-05-10T01:41:26.937Z,16.99
2023-05-10T01:43:39.708Z,16.98
2023-05-10T01:46:02.672Z,16.97
2023-05-10T01:48:12.961Z,16.90
2023-05-10T01:50:24.989Z,16.87
2023-05-10T01:52:33.830Z,16.86
2023-05-10T01:54:42.912Z,16.84
2023-05-10T01:56:49.134Z,16.82
2023-05-10T01:58:58.124Z,16.80
2023-05-10T02:01:11.633Z,16.77
2023-05-10T02:03:18.688Z,16.77
2023-05-10T02:05:31.293Z,16.76
2023-05-10T02:07:39.556Z,16.75
2023-05-10T02:09:49.959Z,16.73
2023-05-10T02:11:55.200Z,16.70
2023-05-10T02:14:10.794Z,16.67
2023-05-10T02:16:16.179Z,16.67
2023-05-10T02:18:19.782Z,16.66
2023-05-10T02:23:01.094Z,16.63
2023-05-10T02:25:08.029Z,16.60
2023-05-10T02:27:13.064Z,16.60
2023-05-10T02:29:21.612Z,16.59
2023-05-10T02:31:26.610Z,16.58
2023-05-10T02:33:32.022Z,16.58
2023-05-10T02:35:40.857Z,16.55
2023-05-10T02:37:53.205Z,16.54
2023-05-10T02:40:06.321Z,16.53
2023-05-10T02:42:11.705Z,16.51
2023-05-10T02:44:16.388Z,16.51
2023-05-10T02:46:21.533Z,16.48
2023-05-10T02:48:29.245Z,16.44
2023-05-10T02:50:35.823Z,16.41
2023-05-10T02:53:15.675Z,16.38
2023-05-10T02:55:25.021Z,16.36
2023-05-10T02:57:35.096Z,16.34
2023-05-10T02:59:38.284Z,16.33
2023-05-10T03:01:45.788Z,16.33
2023-05-10T03:04:17.798Z,16.31
2023-05-10T03:06:27.176Z,16.28
2023-05-10T03:08:31.509Z,16.22
2023-05-10T03:11:03.666Z,16.16
2023-05-10T03:13:32.839Z,16.09
2023-05-10T03:15:48.612Z,16.08
2023-05-10T03:18:06.844Z,16.08
2023-05-10T03:20:15.747Z,16.08
2023-05-10T03:22:29.396Z,16.09
2023-05-10T03:24:36.270Z,16.09
2023-05-10T03:26:40.482Z,16.07
2023-05-10T03:28:53.221Z,16.05
2023-05-10T03:30:58.278Z,16.03
2023-05-10T03:33:08.656Z,16.02
2023-05-10T03:35:19.572Z,16.02
2023-05-10T03:37:22.407Z,16.01
2023-05-10T03:39:27.740Z,15.99
2023-05-10T03:41:32.441Z,15.98
2023-05-10T03:43:38.178Z,15.95
2023-05-10T03:45:45.716Z,15.94
2023-05-10T03:47:48.794Z,15.93
2023-05-10T03:49:54.808Z,15.92
2023-05-10T03:52:08.108Z,15.93
2023-05-10T03:54:11.966Z,15.93
2023-05-10T03:56:16.611Z,15.93
2023-05-10T03:58:19.568Z,15.93
2023-05-10T04:00:22.778Z,15.94
2023-05-10T04:02:28.207Z,15.94
2023-05-10T04:04:32.453Z,15.95
2023-05-10T04:06:36.803Z,15.90
2023-05-10T04:08:44.688Z,15.84
2023-05-10T04:10:49.353Z,15.78
2023-05-10T04:12:52.265Z,15.76
2023-05-10T04:14:54.961Z,15.76
2023-05-10T04:16:58.863Z,15.77
2023-05-10T04:19:01.529Z,15.78
2023-05-10T04:21:05.038Z,15.77
2023-05-10T04:23:09.836Z,15.77
2023-05-10T04:25:13.161Z,15.76
2023-05-10T04:27:32.086Z,15.77
2023-05-10T04:29:35.079Z,15.78
2023-05-10T04:31:38.413Z,15.80
2023-05-10T04:33:41.661Z,15.82
2023-05-10T04:35:46.527Z,15.84
2023-05-10T04:37:51.611Z,15.86
2023-05-10T04:39:55.898Z,15.89
2023-05-10T04:42:03.469Z,15.92
2023-05-10T04:44:08.736Z,15.94
2023-05-10T04:46:11.420Z,15.96
2023-05-10T04:48:14.338Z,15.94
2023-05-10T04:50:17.756Z,15.93
2023-05-10T04:52:21.412Z,15.91
2023-05-10T04:54:24.558Z,15.86
2023-05-10T04:56:27.776Z,15.85
2023-05-10T04:58:33.112Z,15.85
2023-05-10T05:00:36.611Z,15.82
2023-05-10T05:02:39.508Z,15.82
2023-05-10T05:04:44.166Z,15.80
2023-05-10T05:06:46.890Z,15.76
2023-05-10T05:08:51.017Z,15.74
2023-05-10T05:10:54.299Z,15.73
2023-05-10T05:12:57.766Z,15.69
2023-05-10T05:15:01.339Z,15.63
2023-05-10T05:17:05.037Z,15.59
2023-05-10T05:19:07.779Z,15.53
2023-05-10T05:21:20.837Z,15.50
2023-05-10T05:23:26.095Z,15.49
2023-05-10T05:25:29.400Z,15.50
2023-05-10T05:27:32.731Z,15.51
2023-05-10T05:29:36.580Z,15.51
2023-05-10T05:31:39.452Z,15.52
2023-05-10T05:33:42.747Z,15.53
2023-05-10T05:35:48.698Z,15.55
2023-05-10T05:37:51.386Z,15.56
2023-05-10T05:39:56.768Z,15.55
2023-05-10T05:41:59.590Z,15.55
2023-05-10T05:44:02.477Z,15.55
2023-05-10T05:46:06.484Z,15.55
2023-05-10T05:48:09.354Z,15.55
2023-05-10T05:50:12.223Z,15.55
2023-05-10T05:52:16.236Z,15.54
2023-05-10T05:54:41.729Z,15.53
2023-05-10T05:56:45.373Z,15.53
2023-05-10T05:58:48.797Z,15.54
2023-05-10T06:00:53.083Z,15.56
2023-05-10T06:02:58.106Z,15.58
2023-05-10T06:05:01.539Z,15.61
2023-05-10T06:07:05.609Z,15.66
2023-05-10T06:09:10.412Z,15.71
2023-05-10T06:11:14.311Z,15.73
2023-05-10T06:13:17.019Z,15.73
2023-05-10T06:15:19.621Z,15.74
2023-05-10T06:17:23.402Z,15.74
2023-05-10T06:19:27.797Z,15.76
2023-05-10T06:21:32.941Z,15.76
2023-05-10T06:23:37.465Z,15.75
2023-05-10T06:25:40.439Z,15.74
2023-05-10T06:27:43.876Z,15.78
2023-05-10T06:29:52.138Z,15.81
2023-05-10T06:32:00.314Z,15.85
2023-05-10T06:34:03.292Z,15.89
2023-05-10T06:36:06.162Z,15.92
2023-05-10T06:38:08.749Z,15.94
2023-05-10T06:40:13.371Z,15.94
2023-05-10T06:42:17.218Z,15.96
2023-05-10T06:44:22.444Z,15.99
2023-05-10T06:46:28.413Z,16.01
2023-05-10T06:48:31.031Z,16.01
2023-05-10T06:50:35.996Z,16.00
2023-05-10T06:52:42.437Z,16.02
2023-05-10T06:54:49.411Z,16.03
2023-05-10T06:56:54.564Z,16.02
2023-05-10T06:58:58.089Z,16.02
2023-05-10T07:01:07.461Z,16.02
2023-05-10T07:03:11.840Z,16.05
2023-05-10T07:05:15.331Z,16.08
2023-05-10T07:07:18.258Z,16.10
2023-05-10T07:09:22.434Z,16.11
2023-05-10T07:11:26.089Z,16.10
2023-05-10T07:13:32.615Z,16.09
2023-05-10T07:15:36.337Z,16.08
2023-05-10T07:17:40.196Z,16.06
2023-05-10T07:19:45.677Z,16.04
2023-05-10T07:21:50.108Z,16.05
2023-05-10T07:23:54.000Z,16.08
2023-05-10T07:26:01.065Z,16.09
2023-05-10T07:28:03.650Z,16.08
2023-05-10T07:30:08.860Z,16.07
2023-05-10T07:32:13.457Z,16.07
2023-05-10T07:34:16.509Z,16.08
2023-05-10T07:36:19.159Z,16.09
2023-05-10T07:38:23.689Z,16.13
2023-05-10T07:40:27.296Z,16.19
2023-05-10T07:42:30.949Z,16.22
2023-05-10T07:44:33.994Z,16.24
2023-05-10T07:46:37.020Z,16.25
2023-05-10T07:48:40.542Z,16.29
2023-05-10T07:50:43.464Z,16.34
2023-05-10T07:52:48.847Z,16.36
2023-05-10T07:54:51.946Z,16.35
2023-05-10T07:56:56.268Z,16.35
2023-05-10T07:59:05.026Z,16.33
2023-05-10T08:01:09.705Z,16.27
2023-05-10T08:03:14.361Z,16.26
2023-05-10T08:05:18.249Z,16.23
2023-05-10T08:07:23.044Z,16.22
2023-05-10T08:09:25.883Z,16.24
2023-05-10T08:11:29.440Z,16.26
2023-05-10T08:13:44.204Z,16.27
2023-05-10T08:15:51.048Z,16.34
2023-05-10T08:17:55.660Z,16.40
2023-05-10T08:19:58.985Z,16.44
2023-05-10T08:22:04.252Z,16.48
2023-05-10T08:24:07.724Z,16.51
2023-05-10T08:26:12.187Z,16.53
2023-05-10T08:28:18.539Z,16.56
2023-05-10T08:30:22.381Z,16.59
2023-05-10T08:32:24.982Z,16.63
2023-05-10T08:34:29.414Z,16.68
2023-05-10T08:36:33.564Z,16.73
2023-05-10T08:38:39.599Z,16.77
2023-05-10T08:40:42.863Z,16.82
2023-05-10T08:42:57.885Z,16.85
2023-05-10T08:45:25.439Z,16.90
2023-05-10T08:47:30.836Z,16.98
2023-05-10T08:49:35.257Z,17.01
2023-05-10T08:51:48.110Z,17.01
2023-05-10T08:53:53.855Z,17.01
2023-05-10T08:55:58.685Z,17.00
2023-05-10T08:58:08.457Z,17.00
2023-05-10T09:00:24.854Z,16.99
2023-05-10T09:02:28.682Z,16.97
2023-05-10T09:04:34.777Z,17.01
2023-05-10T09:06:38.421Z,17.04
2023-05-10T09:08:44.530Z,17.06
2023-05-10T09:10:50.650Z,17.07
2023-05-10T09:13:04.538Z,17.10
2023-05-10T09:15:10.002Z,17.13
2023-05-10T09:17:17.117Z,17.17
2023-05-10T09:19:21.525Z,17.24
2023-05-10T09:21:30.708Z,17.34
2023-05-10T09:23:46.740Z,17.40
2023-05-10T09:26:06.065Z,17.45
2023-05-10T09:28:13.976Z,17.50
2023-05-10T09:30:28.795Z,17.58
2023-05-10T09:32:43.411Z,17.62
2023-05-10T09:34:53.051Z,17.66
2023-05-10T09:36:58.976Z,17.68
2023-05-10T09:39:04.380Z,17.69
2023-05-10T09:41:19.276Z,17.68
2023-05-10T09:43:22.035Z,17.68
2023-05-10T09:45:38.557Z,17.65
2023-05-10T09:47:42.963Z,17.62
2023-05-10T09:49:52.703Z,17.61
2023-05-10T09:52:06.914Z,17.60
2023-05-10T09:54:17.744Z,17.61
2023-05-10T09:56:37.011Z,17.56
2023-05-10T09:58:42.518Z,17.49
2023-05-10T10:00:49.021Z,17.47
2023-05-10T10:03:01.598Z,17.46
2023-05-10T10:05:07.522Z,17.44
2023-05-10T10:07:11.422Z,17.43
2023-05-10T10:09:15.046Z,17.39
2023-05-10T10:11:18.133Z,17.35
2023-05-10T10:13:21.936Z,17.32
2023-05-10T10:15:25.799Z,17.30
2023-05-10T10:17:31.616Z,17.30
2023-05-10T10:19:37.373Z,17.31
2023-05-10T10:21:40.735Z,17.31
2023-05-10T10:23:45.137Z,17.31
2023-05-10T10:25:49.999Z,17.32
2023-05-10T10:27:57.485Z,17.32
2023-05-10T10:30:10.339Z,17.33
2023-05-10T10:32:39.301Z,17.36
2023-05-10T10:34:45.275Z,17.38
2023-05-10T10:36:55.756Z,17.38
2023-05-10T10:39:12.247Z,17.42
2023-05-10T10:41:36.006Z,17.46
2023-05-10T10:43:42.848Z,17.52
2023-05-10T10:46:18.901Z,17.60
2023-05-10T10:48:27.188Z,17.71
2023-05-10T10:50:32.005Z,17.79
2023-05-10T10:52:38.264Z,17.85
2023-05-10T10:54:45.177Z,17.90
2023-05-10T10:57:17.707Z,17.97
2023-05-10T10:59:29.933Z,18.03
2023-05-10T11:01:40.335Z,18.08
2023-05-10T11:04:14.413Z,18.15
2023-05-10T11:06:31.050Z,18.20
2023-05-10T11:08:48.936Z,18.25
2023-05-10T11:11:02.236Z,18.30
2023-05-10T11:13:09.005Z,18.32
2023-05-10T11:15:13.182Z,18.35
2023-05-10T11:17:36.264Z,18.37
2023-05-10T11:20:09.584Z,18.39
2023-05-10T11:22:17.671Z,18.39
2023-05-10T11:24:25.010Z,18.36
2023-05-10T11:26:35.389Z,18.37
2023-05-10T11:28:49.536Z,18.37
2023-05-10T11:30:53.208Z,18.39
2023-05-10T11:32:57.189Z,18.39
2023-05-10T11:35:01.860Z,18.43
2023-05-10T11:37:06.298Z,18.48
2023-05-10T11:39:12.969Z,18.52
2023-05-10T11:41:24.182Z,18.54
2023-05-10T11:43:31.811Z,18.56
2023-05-10T11:45:37.141Z,18.55
2023-05-10T11:47:44.912Z,18.50
2023-05-10T11:49:53.162Z,18.45
2023-05-10T11:52:16.735Z,18.39
2023-05-10T11:54:23.423Z,18.26
2023-05-10T11:56:28.420Z,18.15
2023-05-10T11:58:34.500Z,18.07
2023-05-10T12:00:47.684Z,18.02
2023-05-10T12:02:53.104Z,18.03
2023-05-10T12:05:01.871Z,18.01
2023-05-10T12:07:15.470Z,18.01
2023-05-10T12:09:35.466Z,18.04
2023-05-10T12:11:44.526Z,18.08
2023-05-10T12:13:48.307Z,18.07
2023-05-10T12:16:02.574Z,18.06
2023-05-10T12:18:15.370Z,18.12
2023-05-10T12:20:22.590Z,18.15
2023-05-10T12:22:36.016Z,18.19
2023-05-10T12:24:42.584Z,18.22
2023-05-10T12:26:49.327Z,18.23
2023-05-10T12:28:52.311Z,18.27
2023-05-10T12:30:56.670Z,18.28
2023-05-10T12:33:18.512Z,18.27
2023-05-10T12:35:24.967Z,18.21
2023-05-10T12:37:46.316Z,18.20
2023-05-10T12:39:56.078Z,18.19
2023-05-10T12:41:59.567Z,18.19
2023-05-10T12:44:10.786Z,18.21
2023-05-10T12:46:17.061Z,18.25
2023-05-10T12:48:21.511Z,18.25
2023-05-10T12:50:27.870Z,18.22
2023-05-10T12:53:02.240Z,18.23
2023-05-10T12:55:06.008Z,18.27
2023-05-10T12:57:09.464Z,18.28
2023-05-10T12:59:12.443Z,18.29
2023-05-10T13:01:17.637Z,18.30
2023-05-10T13:03:20.662Z,18.30
2023-05-10T13:05:29.506Z,18.31
2023-05-10T13:07:39.566Z,18.39
2023-05-10T13:09:43.267Z,18.41
2023-05-10T13:11:48.446Z,18.41
2023-05-10T13:13:53.575Z,18.44
2023-05-10T13:16:04.028Z,18.48
2023-05-10T13:18:10.900Z,18.54
2023-05-10T13:20:13.863Z,18.59
2023-05-10T13:22:32.427Z,18.66
2023-05-10T13:24:48.996Z,18.73
2023-05-10T13:26:57.066Z,18.77
2023-05-10T13:29:01.188Z,18.79
2023-05-10T13:31:13.501Z,18.82
2023-05-10T13:33:19.626Z,18.83
2023-05-10T13:35:25.509Z,18.84
2023-05-10T13:37:36.720Z,18.86
2023-05-10T13:39:39.560Z,18.89
2023-05-10T13:41:44.855Z,18.98
2023-05-10T13:43:50.440Z,19.05
2023-05-10T13:45:55.541Z,19.15
2023-05-10T13:48:01.861Z,19.24
2023-05-10T13:50:13.432Z,19.31
2023-05-10T13:52:22.084Z,19.38
2023-05-10T13:54:27.050Z,19.43
2023-05-10T13:56:32.974Z,19.43
2023-05-10T13:58:36.823Z,19.43
2023-05-10T14:00:40.388Z,19.40
2023-05-10T14:02:44.702Z,19.38
2023-05-10T14:04:49.453Z,19.38
2023-05-10T14:06:53.641Z,19.35
2023-05-10T14:09:00.893Z,19.32
2023-05-10T14:11:16.609Z,19.31
2023-05-10T14:13:23.612Z,19.31
2023-05-10T14:15:28.749Z,19.32
2023-05-10T14:17:34.829Z,19.34
2023-05-10T14:19:39.900Z,19.36
2023-05-10T14:21:44.068Z,19.36
2023-05-10T14:23:46.830Z,19.34
2023-05-10T14:25:54.378Z,19.31
2023-05-10T14:27:57.875Z,19.30
2023-05-10T14:30:03.409Z,19.32
2023-05-10T14:32:08.755Z,19.30
2023-05-10T14:34:13.537Z,19.27
2023-05-10T14:36:16.965Z,19.25
2023-05-10T14:38:27.393Z,19.21
2023-05-10T14:40:41.875Z,19.14
2023-05-10T14:42:49.676Z,19.11
2023-05-10T14:45:00.647Z,19.09
2023-05-10T14:47:12.247Z,19.08
2023-05-10T14:49:15.352Z,19.07
2023-05-10T14:51:20.674Z,19.05
2023-05-10T14:53:23.822Z,19.02
2023-05-10T14:55:27.009Z,19.01
2023-05-10T14:57:31.449Z,19.01
2023-05-10T14:59:34.306Z,19.00
2023-05-10T15:01:39.150Z,18.97
2023-05-10T15:03:50.878Z,18.93
2023-05-10T15:06:01.075Z,18.87
2023-05-10T15:08:11.286Z,18.83
2023-05-10T15:10:15.641Z,18.76
2023-05-10T15:12:19.852Z,18.68
2023-05-10T15:14:24.157Z,18.60
2023-05-10T15:16:29.026Z,18.50
2023-05-10T15:18:32.717Z,18.43
2023-05-10T15:20:35.908Z,18.39
2023-05-10T15:22:42.590Z,18.37
2023-05-10T15:24:47.332Z,18.32
2023-05-10T15:26:51.645Z,18.23
2023-05-10T15:29:12.526Z,18.14
2023-05-10T15:31:17.037Z,18.06
2023-05-10T15:33:19.872Z,18.01
2023-05-10T15:35:28.942Z,17.92
2023-05-10T15:37:34.250Z,17.86
2023-05-10T15:39:38.912Z,17.81
2023-05-10T15:41:44.851Z,17.69
2023-05-10T15:44:10.008Z,17.58
2023-05-10T15:46:22.145Z,17.45
2023-05-10T15:48:27.493Z,17.31
2023-05-10T15:50:34.979Z,17.22
2023-05-10T15:52:40.697Z,17.13
2023-05-10T15:54:47.344Z,17.03
2023-05-10T15:57:05.397Z,16.97
2023-05-10T15:59:32.965Z,16.93
2023-05-10T16:01:36.577Z,16.91
2023-05-10T16:03:41.160Z,16.91
2023-05-10T16:05:44.295Z,16.90
2023-05-10T16:07:47.632Z,16.91
2023-05-10T16:09:50.928Z,16.90
2023-05-10T16:11:56.845Z,16.91
2023-05-10T16:13:59.856Z,16.93
2023-05-10T16:16:04.566Z,16.90
2023-05-10T16:18:14.127Z,16.86
2023-05-10T16:20:21.284Z,16.83
2023-05-10T16:22:28.821Z,16.77
2023-05-10T16:24:35.401Z,16.70
2023-05-10T16:26:41.413Z,16.68
2023-05-10T16:28:46.825Z,16.69
2023-05-10T16:30:49.806Z,16.71
2023-05-10T16:32:54.399Z,16.73
2023-05-10T16:34:58.563Z,16.73
2023-05-10T16:37:02.255Z,16.76
2023-05-10T16:39:13.633Z,16.78
2023-05-10T16:41:18.847Z,16.78
2023-05-10T16:43:25.862Z,16.81
2023-05-10T16:45:43.792Z,16.80
2023-05-10T16:47:49.940Z,16.77
2023-05-10T16:49:52.989Z,16.75
2023-05-10T16:52:00.849Z,16.73
2023-05-10T16:54:04.988Z,16.70
2023-05-10T16:56:09.438Z,16.70
2023-05-10T16:58:15.116Z,16.73
2023-05-10T17:00:18.283Z,16.76
2023-05-10T17:02:22.955Z,16.79
2023-05-10T17:04:32.617Z,16.82
2023-05-10T17:06:38.395Z,16.87
2023-05-10T17:08:43.434Z,16.92
2023-05-10T17:10:56.950Z,16.97
2023-05-10T17:13:08.687Z,17.00
2023-05-10T17:15:16.829Z,17.02
2023-05-10T17:17:25.439Z,17.02
2023-05-10T17:19:28.761Z,17.00
2023-05-10T17:21:32.550Z,16.98
2023-05-10T17:23:38.314Z,16.98
2023-05-10T17:25:42.201Z,16.96
2023-05-10T17:27:44.897Z,16.96
2023-05-10T17:29:48.652Z,16.94
2023-05-10T17:31:52.313Z,16.91
2023-05-10T17:33:58.244Z,16.85
2023-05-10T17:36:09.035Z,16.82
2023-05-10T17:38:13.933Z,16.83
2023-05-10T17:40:18.234Z,16.85
2023-05-10T17:42:24.138Z,16.87
2023-05-10T17:44:28.921Z,16.86
2023-05-10T17:46:33.189Z,16.83
2023-05-10T17:48:37.760Z,16.82
2023-05-10T17:50:45.139Z,16.84
2023-05-10T17:52:50.770Z,16.86
2023-05-10T17:54:56.912Z,16.87
2023-05-10T17:57:00.964Z,16.88
2023-05-10T17:59:04.306Z,16.87
2023-05-10T18:01:18.329Z,16.88
2023-05-10T18:03:41.827Z,16.88
2023-05-10T18:05:47.028Z,16.87
2023-05-10T18:07:51.173Z,16.86
2023-05-10T18:09:54.460Z,16.86
2023-05-10T18:11:59.408Z,16.88
2023-05-10T18:14:04.426Z,16.88
2023-05-10T18:16:17.760Z,16.86
2023-05-10T18:18:22.893Z,16.84
2023-05-10T18:20:26.524Z,16.82
2023-05-10T18:22:30.986Z,16.79
2023-05-10T18:24:42.200Z,16.79
2023-05-10T18:26:50.105Z,16.79
2023-05-10T18:28:53.297Z,16.78
2023-05-10T18:30:56.596Z,16.77
2023-05-10T18:33:02.698Z,16.74
2023-05-10T18:35:09.112Z,16.71
2023-05-10T18:37:14.163Z,16.69
2023-05-10T18:39:18.410Z,16.67
2023-05-10T18:41:26.913Z,16.66
2023-05-10T18:43:31.917Z,16.67
2023-05-10T18:45:35.087Z,16.68
2023-05-10T18:47:40.395Z,16.68
2023-05-10T18:52:12.747Z,16.64
2023-05-10T18:54:22.988Z,16.62
2023-05-10T18:56:30.097Z,16.60
2023-05-10T18:58:36.138Z,16.59
2023-05-10T19:00:41.665Z,16.56
2023-05-10T19:02:51.923Z,16.52
2023-05-10T19:04:59.712Z,16.49
2023-05-10T19:07:05.390Z,16.46
2023-05-10T19:09:10.422Z,16.45
2023-05-10T19:11:14.433Z,16.46
2023-05-10T19:13:18.347Z,16.46
2023-05-10T19:15:36.006Z,16.46
2023-05-10T19:17:42.387Z,16.45
2023-05-10T19:19:56.223Z,16.45
2023-05-10T19:22:00.193Z,16.45
2023-05-10T19:24:06.723Z,16.44
2023-05-10T19:26:13.689Z,16.44
2023-05-10T19:28:36.043Z,16.43
2023-05-10T19:30:45.689Z,16.39
2023-05-10T19:32:52.114Z,16.36
2023-05-10T19:34:59.092Z,16.31
2023-05-10T19:37:01.896Z,16.23
2023-05-10T19:39:07.234Z,16.19
2023-05-10T19:41:14.526Z,16.17
2023-05-10T19:43:46.585Z,16.17
2023-05-10T19:45:57.635Z,16.16
2023-05-10T19:48:02.021Z,16.17
2023-05-10T19:50:12.444Z,16.17
2023-05-10T19:52:17.462Z,16.17
2023-05-10T19:54:21.395Z,16.15
2023-05-10T19:56:29.342Z,16.13
2023-05-10T19:58:35.649Z,16.12
2023-05-10T20:00:42.561Z,16.11
2023-05-10T20:02:46.651Z,16.10
2023-05-10T20:04:57.424Z,16.12
2023-05-10T20:07:05.742Z,16.13
2023-05-10T20:09:10.098Z,16.14
2023-05-10T20:11:13.886Z,16.13
2023-05-10T20:13:23.851Z,16.13
2023-05-10T20:15:31.215Z,16.12
2023-05-10T20:17:36.574Z,16.12
2023-05-10T20:19:40.014Z,16.12
2023-05-10T20:21:49.245Z,16.11
2023-05-10T20:23:55.381Z,16.11
2023-05-10T20:26:02.141Z,16.10
2023-05-10T20:28:11.224Z,16.10
2023-05-10T20:30:20.022Z,16.09
2023-05-10T20:32:25.644Z,16.07
2023-05-10T20:34:29.398Z,16.05
2023-05-10T20:36:34.395Z,16.03
2023-05-10T20:38:42.375Z,16.04
2023-05-10T20:40:56.397Z,16.05
2023-05-10T20:43:07.370Z,16.05
2023-05-10T20:45:17.316Z,16.03
2023-05-10T20:47:20.633Z,16.03
2023-05-10T20:49:35.749Z,16.01
2023-05-10T20:51:49.350Z,15.98
2023-05-10T20:53:57.018Z,15.96
2023-05-10T20:55:59.906Z,15.95
2023-05-10T20:58:16.237Z,15.93
2023-05-10T21:00:37.248Z,15.91
2023-05-10T21:02:48.897Z,15.89
2023-05-10T21:04:56.999Z,15.86
2023-05-10T21:07:09.618Z,15.81
2023-05-10T21:09:52.870Z,15.79
2023-05-10T21:11:58.208Z,15.78
2023-05-10T21:14:04.167Z,15.80
2023-05-10T21:16:10.418Z,15.81
2023-05-10T21:18:23.690Z,15.82
2023-05-10T21:20:33.703Z,15.81
2023-05-10T21:22:47.436Z,15.82
2023-05-10T21:24:54.812Z,15.81
2023-05-10T21:27:01.484Z,15.81
2023-05-10T21:31:46.382Z,15.78
2023-05-10T21:33:50.561Z,15.75
2023-05-10T21:35:59.596Z,15.74
2023-05-10T21:38:09.895Z,15.72
2023-05-10T21:40:17.689Z,15.71
2023-05-10T21:42:22.763Z,15.74
2023-05-10T21:44:31.438Z,15.76
2023-05-10T21:46:36.115Z,15.77
2023-05-10T21:48:44.082Z,15.76
2023-05-10T21:50:58.553Z,15.77
2023-05-10T21:53:11.698Z,15.77
2023-05-10T21:55:31.055Z,15.77
2023-05-10T21:57:54.967Z,15.76
2023-05-10T21:59:58.601Z,15.75
2023-05-10T22:02:04.050Z,15.73
2023-05-10T22:04:11.744Z,15.72
2023-05-10T22:06:21.964Z,15.71
2023-05-10T22:08:30.093Z,15.70
2023-05-10T22:10:35.698Z,15.72
2023-05-10T22:12:41.494Z,15.74
2023-05-10T22:14:50.047Z,15.74
2023-05-10T22:17:01.407Z,15.75
2023-05-10T22:19:06.245Z,15.74
2023-05-10T22:21:14.064Z,15.74
2023-05-10T22:23:19.954Z,15.73
2023-05-10T22:25:24.283Z,15.72
2023-05-10T22:27:37.818Z,15.70
2023-05-10T22:29:54.805Z,15.66
2023-05-10T22:32:05.983Z,15.60
2023-05-10T22:34:15.271Z,15.57
2023-05-10T22:36:20.615Z,15.54
2023-05-10T22:38:25.472Z,15.54
2023-05-10T22:40:28.458Z,15.54
2023-05-10T22:42:32.468Z,15.52
2023-05-10T22:44:35.895Z,15.51
2023-05-10T22:46:39.557Z,15.50
2023-05-10T22:48:49.666Z,15.50
2023-05-10T22:50:52.487Z,15.50
2023-05-10T22:52:57.916Z,15.50
2023-05-10T22:55:01.228Z,15.49
2023-05-10T22:57:04.993Z,15.48
2023-05-10T22:59:10.269Z,15.47
2023-05-10T23:01:14.991Z,15.47
2023-05-10T23:03:19.785Z,15.47
2023-05-10T23:05:23.294Z,15.49
2023-05-10T23:07:27.828Z,15.50
2023-05-10T23:09:35.666Z,15.52
2023-05-10T23:11:40.306Z,15.52
2023-05-10T23:13:44.840Z,15.52
2023-05-10T23:15:48.482Z,15.51
2023-05-10T23:17:51.627Z,15.51
2023-05-10T23:19:58.573Z,15.51
2023-05-10T23:22:01.421Z,15.51
2023-05-10T23:24:06.392Z,15.49
2023-05-10T23:26:10.387Z,15.48
2023-05-10T23:28:13.612Z,15.47
2023-05-10T23:30:41.257Z,15.48
2023-05-10T23:32:45.535Z,15.48
2023-05-10T23:34:49.708Z,15.48
2023-05-10T23:36:52.804Z,15.47
2023-05-10T23:38:57.309Z,15.47
2023-05-10T23:41:08.270Z,15.46
2023-05-10T23:43:18.634Z,15.46
2023-05-10T23:45:25.469Z,15.44
2023-05-10T23:47:32.415Z,15.42
2023-05-10T23:49:35.548Z,15.41
2023-05-10T23:51:42.086Z,15.39
2023-05-10T23:53:45.206Z,15.38
2023-05-10T23:55:52.486Z,15.38
2023-05-10T23:57:55.703Z,15.38
